sensor_id;sensor_type;location;lat;lon;timestamp;P1;durP1;ratioP1;P2;durP2;ratioP2
42846;SDS011;28495;49.916;14.536;2023-04-24T00:00:44;3.42;;;2.47;;
42846;SDS011;28495;49.916;14.536;2023-04-24T00:06:06;3.22;;;1.92;;
42846;SDS011;28495;49.916;14.536;2023-04-24T00:11:29;2.83;;;1.58;;
42846;SDS011;28495;49.916;14.536;2023-04-24T00:16:50;5.55;;;2.45;;
42846;SDS011;28495;49.916;14.536;2023-04-24T00:22:12;2.60;;;2.10;;
42846;SDS011;28495;49.916;14.536;2023-04-24T00:27:35;3.92;;;1.98;;
42846;SDS011;28495;49.916;14.536;2023-04-24T00:32:57;4.18;;;2.22;;
42846;SDS011;28495;49.916;14.536;2023-04-24T00:38:19;2.70;;;2.08;;
42846;SDS011;28495;49.916;14.536;2023-04-24T00:43:40;3.72;;;2.60;;
42846;SDS011;28495;49.916;14.536;2023-04-24T00:49:01;3.50;;;2.35;;
42846;SDS011;28495;49.916;14.536;2023-04-24T00:54:23;4.22;;;2.70;;
42846;SDS011;28495;49.916;14.536;2023-04-24T00:59:44;3.88;;;2.25;;
42846;SDS011;28495;49.916;14.536;2023-04-24T01:05:05;3.22;;;2.28;;
42846;SDS011;28495;49.916;14.536;2023-04-24T01:10:29;2.90;;;1.65;;
42846;SDS011;28495;49.916;14.536;2023-04-24T01:15:53;2.67;;;1.63;;
42846;SDS011;28495;49.916;14.536;2023-04-24T01:21:15;2.28;;;1.42;;
42846;SDS011;28495;49.916;14.536;2023-04-24T01:26:37;2.47;;;1.70;;
42846;SDS011;28495;49.916;14.536;2023-04-24T01:31:58;1.85;;;1.65;;
42846;SDS011;28495;49.916;14.536;2023-04-24T01:37:19;4.57;;;1.90;;
42846;SDS011;28495;49.916;14.536;2023-04-24T01:42:41;3.08;;;1.65;;
42846;SDS011;28495;49.916;14.536;2023-04-24T01:48:02;3.42;;;1.90;;
42846;SDS011;28495;49.916;14.536;2023-04-24T01:53:23;2.13;;;1.80;;
42846;SDS011;28495;49.916;14.536;2023-04-24T01:58:44;3.88;;;1.88;;
42846;SDS011;28495;49.916;14.536;2023-04-24T02:04:06;2.92;;;2.00;;
42846;SDS011;28495;49.916;14.536;2023-04-24T02:09:28;2.55;;;2.05;;
42846;SDS011;28495;49.916;14.536;2023-04-24T02:14:49;2.25;;;2.05;;
42846;SDS011;28495;49.916;14.536;2023-04-24T02:20:10;2.22;;;2.03;;
42846;SDS011;28495;49.916;14.536;2023-04-24T02:25:31;2.83;;;1.65;;
42846;SDS011;28495;49.916;14.536;2023-04-24T02:30:53;3.10;;;1.90;;
42846;SDS011;28495;49.916;14.536;2023-04-24T02:36:15;2.33;;;2.05;;
42846;SDS011;28495;49.916;14.536;2023-04-24T02:41:36;3.58;;;1.80;;
42846;SDS011;28495;49.916;14.536;2023-04-24T02:46:57;3.22;;;2.05;;
42846;SDS011;28495;49.916;14.536;2023-04-24T02:52:18;2.40;;;1.50;;
42846;SDS011;28495;49.916;14.536;2023-04-24T02:57:39;4.72;;;1.80;;
42846;SDS011;28495;49.916;14.536;2023-04-24T03:03:00;2.58;;;1.70;;
42846;SDS011;28495;49.916;14.536;2023-04-24T03:08:22;2.35;;;1.90;;
42846;SDS011;28495;49.916;14.536;2023-04-24T03:13:43;2.35;;;1.70;;
42846;SDS011;28495;49.916;14.536;2023-04-24T03:19:04;2.05;;;1.77;;
42846;SDS011;28495;49.916;14.536;2023-04-24T03:24:28;2.50;;;1.80;;
42846;SDS011;28495;49.916;14.536;2023-04-24T03:29:49;2.45;;;1.90;;
42846;SDS011;28495;49.916;14.536;2023-04-24T03:35:17;2.63;;;1.70;;
42846;SDS011;28495;49.916;14.536;2023-04-24T03:40:39;4.13;;;1.65;;
42846;SDS011;28495;49.916;14.536;2023-04-24T03:46:12;4.15;;;2.00;;
42846;SDS011;28495;49.916;14.536;2023-04-24T03:51:38;2.42;;;1.58;;
42846;SDS011;28495;49.916;14.536;2023-04-24T03:57:10;2.08;;;1.55;;
42846;SDS011;28495;49.916;14.536;2023-04-24T04:02:40;1.83;;;1.30;;
42846;SDS011;28495;49.916;14.536;2023-04-24T04:08:02;1.27;;;1.02;;
42846;SDS011;28495;49.916;14.536;2023-04-24T04:13:23;2.03;;;1.27;;
42846;SDS011;28495;49.916;14.536;2023-04-24T04:18:44;1.98;;;1.08;;
42846;SDS011;28495;49.916;14.536;2023-04-24T04:24:06;1.35;;;1.13;;
42846;SDS011;28495;49.916;14.536;2023-04-24T04:29:31;1.55;;;0.93;;
42846;SDS011;28495;49.916;14.536;2023-04-24T04:34:54;2.08;;;1.40;;
42846;SDS011;28495;49.916;14.536;2023-04-24T04:40:19;2.20;;;1.45;;
42846;SDS011;28495;49.916;14.536;2023-04-24T04:45:50;2.55;;;1.50;;
42846;SDS011;28495;49.916;14.536;2023-04-24T04:51:25;1.58;;;1.48;;
42846;SDS011;28495;49.916;14.536;2023-04-24T04:56:49;2.35;;;1.40;;
42846;SDS011;28495;49.916;14.536;2023-04-24T05:02:11;4.15;;;1.75;;
42846;SDS011;28495;49.916;14.536;2023-04-24T05:07:33;1.33;;;1.17;;
42846;SDS011;28495;49.916;14.536;2023-04-24T05:12:54;1.65;;;1.30;;
42846;SDS011;28495;49.916;14.536;2023-04-24T05:18:15;4.57;;;1.75;;
42846;SDS011;28495;49.916;14.536;2023-04-24T05:23:37;2.65;;;1.00;;
42846;SDS011;28495;49.916;14.536;2023-04-24T05:28:58;1.83;;;1.30;;
42846;SDS011;28495;49.916;14.536;2023-04-24T05:34:19;1.33;;;1.23;;
42846;SDS011;28495;49.916;14.536;2023-04-24T05:39:45;4.43;;;1.63;;
42846;SDS011;28495;49.916;14.536;2023-04-24T05:45:07;3.10;;;1.55;;
42846;SDS011;28495;49.916;14.536;2023-04-24T05:50:28;1.95;;;1.60;;
42846;SDS011;28495;49.916;14.536;2023-04-24T05:55:49;4.82;;;1.45;;
42846;SDS011;28495;49.916;14.536;2023-04-24T06:01:10;3.22;;;1.42;;
42846;SDS011;28495;49.916;14.536;2023-04-24T06:06:32;2.08;;;1.73;;
42846;SDS011;28495;49.916;14.536;2023-04-24T06:11:53;2.50;;;1.40;;
42846;SDS011;28495;49.916;14.536;2023-04-24T06:17:19;2.75;;;1.67;;
42846;SDS011;28495;49.916;14.536;2023-04-24T06:22:41;2.85;;;1.55;;
42846;SDS011;28495;49.916;14.536;2023-04-24T06:28:03;2.42;;;1.45;;
42846;SDS011;28495;49.916;14.536;2023-04-24T06:33:25;2.13;;;1.42;;
42846;SDS011;28495;49.916;14.536;2023-04-24T06:38:46;1.88;;;1.30;;
42846;SDS011;28495;49.916;14.536;2023-04-24T06:44:07;2.67;;;1.50;;
42846;SDS011;28495;49.916;14.536;2023-04-24T06:49:28;2.50;;;1.52;;
42846;SDS011;28495;49.916;14.536;2023-04-24T06:54:50;3.03;;;1.50;;
42846;SDS011;28495;49.916;14.536;2023-04-24T07:00:13;3.05;;;1.50;;
42846;SDS011;28495;49.916;14.536;2023-04-24T07:05:34;4.38;;;1.88;;
42846;SDS011;28495;49.916;14.536;2023-04-24T07:10:56;2.95;;;1.98;;
42846;SDS011;28495;49.916;14.536;2023-04-24T07:16:18;2.17;;;1.52;;
42846;SDS011;28495;49.916;14.536;2023-04-24T07:21:39;1.58;;;1.30;;
42846;SDS011;28495;49.916;14.536;2023-04-24T07:27:00;3.05;;;1.73;;
42846;SDS011;28495;49.916;14.536;2023-04-24T07:32:22;2.58;;;1.98;;
42846;SDS011;28495;49.916;14.536;2023-04-24T07:37:42;3.30;;;1.80;;
42846;SDS011;28495;49.916;14.536;2023-04-24T07:43:06;1.50;;;1.40;;
42846;SDS011;28495;49.916;14.536;2023-04-24T07:48:27;2.17;;;1.80;;
42846;SDS011;28495;49.916;14.536;2023-04-24T07:53:48;2.38;;;2.10;;
42846;SDS011;28495;49.916;14.536;2023-04-24T07:59:08;2.25;;;1.77;;
42846;SDS011;28495;49.916;14.536;2023-04-24T08:04:31;2.58;;;1.67;;
42846;SDS011;28495;49.916;14.536;2023-04-24T08:09:53;2.47;;;2.22;;
42846;SDS011;28495;49.916;14.536;2023-04-24T08:15:14;2.13;;;1.73;;
42846;SDS011;28495;49.916;14.536;2023-04-24T08:20:35;4.35;;;2.08;;
42846;SDS011;28495;49.916;14.536;2023-04-24T08:25:57;1.95;;;1.73;;
42846;SDS011;28495;49.916;14.536;2023-04-24T08:31:19;2.30;;;2.03;;
42846;SDS011;28495;49.916;14.536;2023-04-24T08:36:43;2.10;;;1.90;;
42846;SDS011;28495;49.916;14.536;2023-04-24T08:42:07;2.08;;;1.40;;
42846;SDS011;28495;49.916;14.536;2023-04-24T08:47:29;2.85;;;0.98;;
42846;SDS011;28495;49.916;14.536;2023-04-24T08:52:51;1.50;;;0.90;;
42846;SDS011;28495;49.916;14.536;2023-04-24T08:58:15;1.58;;;1.00;;
42846;SDS011;28495;49.916;14.536;2023-04-24T09:03:37;1.85;;;1.20;;
42846;SDS011;28495;49.916;14.536;2023-04-24T09:09:00;1.45;;;1.30;;
42846;SDS011;28495;49.916;14.536;2023-04-24T09:14:23;3.38;;;1.88;;
42846;SDS011;28495;49.916;14.536;2023-04-24T09:19:45;1.40;;;0.98;;
42846;SDS011;28495;49.916;14.536;2023-04-24T09:25:08;1.27;;;0.80;;
42846;SDS011;28495;49.916;14.536;2023-04-24T09:30:29;0.85;;;0.75;;
42846;SDS011;28495;49.916;14.536;2023-04-24T09:35:52;1.35;;;1.10;;
42846;SDS011;28495;49.916;14.536;2023-04-24T09:41:13;1.48;;;1.00;;
42846;SDS011;28495;49.916;14.536;2023-04-24T09:46:35;1.13;;;1.00;;
42846;SDS011;28495;49.916;14.536;2023-04-24T09:52:03;1.30;;;1.20;;
42846;SDS011;28495;49.916;14.536;2023-04-24T09:57:24;2.30;;;1.10;;
42846;SDS011;28495;49.916;14.536;2023-04-24T10:02:49;2.08;;;1.42;;
42846;SDS011;28495;49.916;14.536;2023-04-24T10:08:11;3.28;;;1.33;;
42846;SDS011;28495;49.916;14.536;2023-04-24T10:13:33;2.53;;;1.20;;
42846;SDS011;28495;49.916;14.536;2023-04-24T10:18:56;4.40;;;0.95;;
42846;SDS011;28495;49.916;14.536;2023-04-24T10:24:20;1.42;;;1.00;;
42846;SDS011;28495;49.916;14.536;2023-04-24T10:29:43;1.02;;;0.85;;
42846;SDS011;28495;49.916;14.536;2023-04-24T10:35:06;1.38;;;1.10;;
42846;SDS011;28495;49.916;14.536;2023-04-24T10:40:32;3.70;;;1.13;;
42846;SDS011;28495;49.916;14.536;2023-04-24T10:46:01;1.00;;;0.88;;
42846;SDS011;28495;49.916;14.536;2023-04-24T10:51:42;0.93;;;0.80;;
42846;SDS011;28495;49.916;14.536;2023-04-24T11:02:39;1.77;;;1.00;;
42846;SDS011;28495;49.916;14.536;2023-04-24T11:30:02;1.35;;;0.55;;
42846;SDS011;28495;49.916;14.536;2023-04-24T11:35:24;1.70;;;0.60;;
42846;SDS011;28495;49.916;14.536;2023-04-24T11:40:47;1.95;;;0.77;;
42846;SDS011;28495;49.916;14.536;2023-04-24T11:46:09;0.43;;;0.35;;
42846;SDS011;28495;49.916;14.536;2023-04-24T11:51:31;0.50;;;0.50;;
42846;SDS011;28495;49.916;14.536;2023-04-24T11:57:10;0.85;;;0.70;;
42846;SDS011;28495;49.916;14.536;2023-04-24T12:02:31;2.13;;;0.47;;
42846;SDS011;28495;49.916;14.536;2023-04-24T12:07:53;1.55;;;0.50;;
42846;SDS011;28495;49.916;14.536;2023-04-24T12:13:15;0.60;;;0.40;;
42846;SDS011;28495;49.916;14.536;2023-04-24T12:18:41;0.30;;;0.30;;
42846;SDS011;28495;49.916;14.536;2023-04-24T12:24:05;0.25;;;0.25;;
42846;SDS011;28495;49.916;14.536;2023-04-24T12:29:28;0.20;;;0.20;;
42846;SDS011;28495;49.916;14.536;2023-04-24T12:34:50;2.03;;;0.20;;
42846;SDS011;28495;49.916;14.536;2023-04-24T12:40:12;0.63;;;0.10;;
42846;SDS011;28495;49.916;14.536;2023-04-24T12:45:34;0.10;;;0.10;;
42846;SDS011;28495;49.916;14.536;2023-04-24T12:50:58;0.25;;;0.20;;
42846;SDS011;28495;49.916;14.536;2023-04-24T12:56:22;0.60;;;0.43;;
42846;SDS011;28495;49.916;14.536;2023-04-24T13:01:44;0.38;;;0.30;;
42846;SDS011;28495;49.916;14.536;2023-04-24T13:07:05;0.45;;;0.40;;
42846;SDS011;28495;49.916;14.536;2023-04-24T13:12:26;0.50;;;0.40;;
42846;SDS011;28495;49.916;14.536;2023-04-24T13:17:47;1.88;;;0.50;;
42846;SDS011;28495;49.916;14.536;2023-04-24T13:23:08;0.88;;;0.52;;
42846;SDS011;28495;49.916;14.536;2023-04-24T13:28:29;0.63;;;0.50;;
42846;SDS011;28495;49.916;14.536;2023-04-24T13:33:51;0.80;;;0.70;;
42846;SDS011;28495;49.916;14.536;2023-04-24T13:39:11;2.70;;;0.90;;
42846;SDS011;28495;49.916;14.536;2023-04-24T13:44:33;1.05;;;0.82;;
42846;SDS011;28495;49.916;14.536;2023-04-24T13:49:54;1.33;;;0.90;;
42846;SDS011;28495;49.916;14.536;2023-04-24T13:55:14;0.80;;;0.80;;
42846;SDS011;28495;49.916;14.536;2023-04-24T14:00:35;1.63;;;0.68;;
42846;SDS011;28495;49.916;14.536;2023-04-24T14:05:57;1.10;;;0.70;;
42846;SDS011;28495;49.916;14.536;2023-04-24T14:11:18;0.60;;;0.60;;
42846;SDS011;28495;49.916;14.536;2023-04-24T14:16:40;0.68;;;0.50;;
42846;SDS011;28495;49.916;14.536;2023-04-24T14:22:01;0.32;;;0.30;;
42846;SDS011;28495;49.916;14.536;2023-04-24T14:27:22;0.60;;;0.50;;
42846;SDS011;28495;49.916;14.536;2023-04-24T14:32:45;0.65;;;0.50;;
42846;SDS011;28495;49.916;14.536;2023-04-24T14:38:06;1.05;;;0.50;;
42846;SDS011;28495;49.916;14.536;2023-04-24T14:43:27;2.40;;;0.80;;
42846;SDS011;28495;49.916;14.536;2023-04-24T14:48:48;0.50;;;0.47;;
42846;SDS011;28495;49.916;14.536;2023-04-24T14:54:09;1.15;;;0.60;;
42846;SDS011;28495;49.916;14.536;2023-04-24T14:59:30;0.63;;;0.63;;
42846;SDS011;28495;49.916;14.536;2023-04-24T15:04:51;0.80;;;0.68;;
42846;SDS011;28495;49.916;14.536;2023-04-24T15:10:13;2.10;;;0.52;;
42846;SDS011;28495;49.916;14.536;2023-04-24T15:15:34;0.70;;;0.43;;
42846;SDS011;28495;49.916;14.536;2023-04-24T15:20:56;2.63;;;0.90;;
42846;SDS011;28495;49.916;14.536;2023-04-24T15:26:17;1.33;;;0.80;;
42846;SDS011;28495;49.916;14.536;2023-04-24T15:31:38;1.10;;;0.65;;
42846;SDS011;28495;49.916;14.536;2023-04-24T15:37:00;0.65;;;0.63;;
42846;SDS011;28495;49.916;14.536;2023-04-24T15:42:21;3.95;;;0.60;;
42846;SDS011;28495;49.916;14.536;2023-04-24T15:47:43;0.50;;;0.50;;
42846;SDS011;28495;49.916;14.536;2023-04-24T15:53:05;0.95;;;0.95;;
42846;SDS011;28495;49.916;14.536;2023-04-24T15:58:26;0.50;;;0.50;;
42846;SDS011;28495;49.916;14.536;2023-04-24T16:03:47;0.52;;;0.40;;
42846;SDS011;28495;49.916;14.536;2023-04-24T16:09:08;0.50;;;0.50;;
42846;SDS011;28495;49.916;14.536;2023-04-24T16:22:00;0.50;;;0.50;;
42846;SDS011;28495;49.916;14.536;2023-04-24T16:27:22;2.30;;;0.60;;
42846;SDS011;28495;49.916;14.536;2023-04-24T16:32:44;0.60;;;0.60;;
42846;SDS011;28495;49.916;14.536;2023-04-24T16:38:05;0.95;;;0.60;;
42846;SDS011;28495;49.916;14.536;2023-04-24T16:43:26;1.38;;;0.82;;
42846;SDS011;28495;49.916;14.536;2023-04-24T16:48:47;0.60;;;0.45;;
42846;SDS011;28495;49.916;14.536;2023-04-24T16:54:08;0.43;;;0.43;;
42846;SDS011;28495;49.916;14.536;2023-04-24T16:59:30;0.50;;;0.50;;
42846;SDS011;28495;49.916;14.536;2023-04-24T17:04:53;0.63;;;0.52;;
42846;SDS011;28495;49.916;14.536;2023-04-24T17:10:14;0.70;;;0.70;;
42846;SDS011;28495;49.916;14.536;2023-04-24T17:15:35;1.65;;;0.50;;
42846;SDS011;28495;49.916;14.536;2023-04-24T17:20:57;0.43;;;0.43;;
42846;SDS011;28495;49.916;14.536;2023-04-24T17:26:17;1.50;;;0.50;;
42846;SDS011;28495;49.916;14.536;2023-04-24T17:31:38;0.40;;;0.40;;
42846;SDS011;28495;49.916;14.536;2023-04-24T17:36:59;0.50;;;0.50;;
42846;SDS011;28495;49.916;14.536;2023-04-24T17:42:20;0.63;;;0.60;;
42846;SDS011;28495;49.916;14.536;2023-04-24T17:47:40;0.55;;;0.50;;
42846;SDS011;28495;49.916;14.536;2023-04-24T17:53:01;1.08;;;0.77;;
42846;SDS011;28495;49.916;14.536;2023-04-24T17:58:22;0.80;;;0.80;;
42846;SDS011;28495;49.916;14.536;2023-04-24T18:03:43;0.80;;;0.80;;
42846;SDS011;28495;49.916;14.536;2023-04-24T18:09:04;1.05;;;0.80;;
42846;SDS011;28495;49.916;14.536;2023-04-24T18:14:25;1.60;;;0.82;;
42846;SDS011;28495;49.916;14.536;2023-04-24T18:19:47;1.00;;;0.90;;
42846;SDS011;28495;49.916;14.536;2023-04-24T18:25:08;0.80;;;0.80;;
42846;SDS011;28495;49.916;14.536;2023-04-24T18:30:29;2.70;;;1.00;;
42846;SDS011;28495;49.916;14.536;2023-04-24T18:35:52;1.35;;;0.70;;
42846;SDS011;28495;49.916;14.536;2023-04-24T18:41:12;1.08;;;0.60;;
42846;SDS011;28495;49.916;14.536;2023-04-24T18:46:33;1.38;;;0.93;;
42846;SDS011;28495;49.916;14.536;2023-04-24T18:52:01;1.25;;;1.00;;
42846;SDS011;28495;49.916;14.536;2023-04-24T18:57:21;0.68;;;0.68;;
42846;SDS011;28495;49.916;14.536;2023-04-24T19:02:43;2.78;;;1.00;;
42846;SDS011;28495;49.916;14.536;2023-04-24T19:08:05;0.98;;;0.95;;
42846;SDS011;28495;49.916;14.536;2023-04-24T19:13:25;0.90;;;0.80;;
42846;SDS011;28495;49.916;14.536;2023-04-24T19:18:46;1.67;;;0.90;;
42846;SDS011;28495;49.916;14.536;2023-04-24T19:24:07;0.90;;;0.90;;
42846;SDS011;28495;49.916;14.536;2023-04-24T19:29:31;0.98;;;0.90;;
42846;SDS011;28495;49.916;14.536;2023-04-24T19:34:52;0.82;;;0.80;;
42846;SDS011;28495;49.916;14.536;2023-04-24T19:40:13;0.82;;;0.82;;
42846;SDS011;28495;49.916;14.536;2023-04-24T19:45:34;1.30;;;0.80;;
42846;SDS011;28495;49.916;14.536;2023-04-24T19:50:55;1.25;;;0.70;;
42846;SDS011;28495;49.916;14.536;2023-04-24T19:56:18;0.77;;;0.70;;
42846;SDS011;28495;49.916;14.536;2023-04-24T20:01:38;2.38;;;0.57;;
42846;SDS011;28495;49.916;14.536;2023-04-24T20:07:01;0.60;;;0.60;;
42846;SDS011;28495;49.916;14.536;2023-04-24T20:12:21;0.70;;;0.70;;
42846;SDS011;28495;49.916;14.536;2023-04-24T20:17:42;0.70;;;0.70;;
42846;SDS011;28495;49.916;14.536;2023-04-24T20:23:03;0.70;;;0.70;;
42846;SDS011;28495;49.916;14.536;2023-04-24T20:28:28;1.65;;;0.90;;
42846;SDS011;28495;49.916;14.536;2023-04-24T20:33:49;2.72;;;0.90;;
42846;SDS011;28495;49.916;14.536;2023-04-24T20:39:11;0.90;;;0.80;;
42846;SDS011;28495;49.916;14.536;2023-04-24T20:44:32;0.98;;;0.88;;
42846;SDS011;28495;49.916;14.536;2023-04-24T20:49:52;1.80;;;0.73;;
42846;SDS011;28495;49.916;14.536;2023-04-24T20:55:13;0.85;;;0.80;;
42846;SDS011;28495;49.916;14.536;2023-04-24T21:00:34;0.82;;;0.77;;
42846;SDS011;28495;49.916;14.536;2023-04-24T21:05:55;1.20;;;1.10;;
42846;SDS011;28495;49.916;14.536;2023-04-24T21:11:16;1.48;;;0.98;;
42846;SDS011;28495;49.916;14.536;2023-04-24T21:16:37;0.95;;;0.90;;
42846;SDS011;28495;49.916;14.536;2023-04-24T21:21:58;0.98;;;0.93;;
42846;SDS011;28495;49.916;14.536;2023-04-24T21:27:18;1.17;;;1.00;;
42846;SDS011;28495;49.916;14.536;2023-04-24T21:32:39;1.10;;;1.00;;
42846;SDS011;28495;49.916;14.536;2023-04-24T21:38:00;0.80;;;0.80;;
42846;SDS011;28495;49.916;14.536;2023-04-24T21:43:21;0.82;;;0.63;;
42846;SDS011;28495;49.916;14.536;2023-04-24T21:48:56;0.85;;;0.60;;
42846;SDS011;28495;49.916;14.536;2023-04-24T21:54:17;0.80;;;0.80;;
42846;SDS011;28495;49.916;14.536;2023-04-24T21:59:39;3.63;;;1.05;;
42846;SDS011;28495;49.916;14.536;2023-04-24T22:05:01;1.25;;;0.75;;
42846;SDS011;28495;49.916;14.536;2023-04-24T22:10:24;1.75;;;1.00;;
42846;SDS011;28495;49.916;14.536;2023-04-24T22:15:46;0.95;;;0.80;;
42846;SDS011;28495;49.916;14.536;2023-04-24T22:21:09;1.40;;;0.90;;
42846;SDS011;28495;49.916;14.536;2023-04-24T22:26:30;0.90;;;0.70;;
42846;SDS011;28495;49.916;14.536;2023-04-24T22:31:51;1.48;;;1.20;;
42846;SDS011;28495;49.916;14.536;2023-04-24T22:37:15;0.57;;;0.50;;
42846;SDS011;28495;49.916;14.536;2023-04-24T22:42:36;1.25;;;0.68;;
42846;SDS011;28495;49.916;14.536;2023-04-24T22:47:56;1.10;;;1.00;;
42846;SDS011;28495;49.916;14.536;2023-04-24T22:53:17;0.77;;;0.77;;
42846;SDS011;28495;49.916;14.536;2023-04-24T22:58:39;2.30;;;1.23;;
42846;SDS011;28495;49.916;14.536;2023-04-24T23:04:00;2.30;;;1.20;;
42846;SDS011;28495;49.916;14.536;2023-04-24T23:09:21;2.13;;;1.00;;
42846;SDS011;28495;49.916;14.536;2023-04-24T23:14:41;1.08;;;0.98;;
42846;SDS011;28495;49.916;14.536;2023-04-24T23:20:02;2.17;;;1.15;;
42846;SDS011;28495;49.916;14.536;2023-04-24T23:25:24;1.45;;;1.15;;
42846;SDS011;28495;49.916;14.536;2023-04-24T23:30:45;1.02;;;0.93;;
42846;SDS011;28495;49.916;14.536;2023-04-24T23:36:06;3.58;;;1.08;;
42846;SDS011;28495;49.916;14.536;2023-04-24T23:41:27;1.50;;;1.10;;
42846;SDS011;28495;49.916;14.536;2023-04-24T23:46:48;1.20;;;1.10;;
42846;SDS011;28495;49.916;14.536;2023-04-24T23:52:09;1.10;;;1.00;;
42846;SDS011;28495;49.916;14.536;2023-04-24T23:57:30;2.00;;;1.50;;
